Date,TemperatureHighF,TemperatureAvgF,TemperatureLowF,DewpointHighF,DewpointAvgF,DewpointLowF,HumidityHigh,HumidityAvg,HumidityLow,PressureMaxIn,PressureMinIn,WindSpeedMaxMPH,WindSpeedAvgMPH,GustSpeedMaxMPH,PrecipitationSumIn
2013-1-1,34.7,20.9,10.8,14.3,1.9,-10.3,78,48,20,29.78,29.66,13,4,16,0.00
2013-1-2,45.0,25.3,17.1,6.7,-1.0,-12.0,53,32,19,29.90,29.75,8,3,10,0.00
2013-1-3,40.5,26.5,14.9,18.1,-6.6,-15.4,43,23,18,29.91,29.80,8,4,11,0.00
2013-1-4,63.1,36.2,23.5,18.4,4.6,-10.0,46,27,17,29.82,29.68,8,3,9,0.00
2013-1-5,42.3,31.9,24.6,11.6,4.5,-6.5,49,32,19,29.90,29.70,15,4,19,0.00
2013-1-6,57.0,36.5,19.8,16.4,1.4,-11.5,47,23,18,29.88,29.61,6,1,7,0.00
2013-1-7,49.5,41.3,28.8,11.2,4.7,-2.5,36,22,18,29.68,29.59,21,7,24,0.00
2013-1-8,52.2,44.1,32.7,17.9,9.4,3.0,54,24,18,29.85,29.49,23,7,27,0.00
2013-1-9,68.5,42.7,28.4,19.0,14.2,7.6,57,34,13,29.92,29.67,49,3,49,0.00
2013-1-10,46.2,35.4,25.5,21.5,13.2,1.8,57,41,20,29.67,29.19,8,2,10,0.00
2013-1-11,41.5,30.7,15.1,21.3,8.5,-15.3,80,43,19,29.41,29.05,25,8,32,0.00
2013-1-12,11.5,5.2,0.9,5.1,-2.1,-7.2,75,71,61,29.63,29.49,7,1,9,0.00
2013-1-13,21.7,8.1,0.1,6.2,-4.2,-10.1,74,58,35,29.71,29.61,4,1,7,0.00
2013-1-14,27.3,9.1,0.1,-0.3,-8.2,-16.3,67,47,20,29.75,29.65,7,1,7,0.00
2013-1-15,33.8,18.5,-0.6,10.7,-3.5,-16.6,61,39,23,29.76,29.66,10,3,11,0.00
2013-1-16,58.1,40.1,29.3,18.7,12.4,5.7,51,33,19,29.96,29.75,15,5,18,0.00
2013-1-17,54.7,42.0,25.2,21.7,12.0,0.8,54,31,18,30.06,29.85,10,3,84,0.00
2013-1-18,73.9,47.7,33.3,60.5,8.3,-1.0,91,21,11,29.84,29.73,9,3,12,0.00
2013-1-19,61.3,48.7,33.6,57.0,9.5,3.0,93,20,17,29.88,29.71,24,8,33,0.00
2013-1-20,44.6,43.9,43.3,3.9,3.8,3.8,19,18,18,29.85,29.85,6,6,8,0.00
2013-1-21,61.3,28.1,6.8,17.3,10.7,4.0,88,55,17,29.83,29.72,49,6,98,6.15
2013-1-22,74.8,61.1,49.5,22.4,15.1,8.8,21,17,11,29.79,29.72,18,4,21,0.00
2013-1-23,64.6,55.5,38.3,16.9,13.7,4.2,26,19,15,29.84,29.76,17,4,21,0.00
2013-1-24,71.2,51.1,28.6,26.3,14.9,-1.3,45,25,12,29.80,29.64,34,6,44,0.00
2013-1-25,63.7,45.1,33.6,26.8,23.8,19.9,61,44,19,29.82,29.72,7,2,9,0.00
2013-1-26,57.0,43.4,32.9,37.3,26.8,21.7,90,54,28,29.73,29.47,4,1,6,0.00
2013-1-27,59.5,44.5,33.6,37.3,30.3,15.7,91,61,31,29.49,29.42,11,3,13,0.00
2013-1-28,60.4,36.6,24.1,30.9,21.2,12.1,99,60,20,29.44,29.30,8,2,13,0.00
2013-1-29,45.1,24.7,14.4,32.0,12.6,1.4,96,64,23,29.60,29.38,9,2,17,0.08
2013-1-30,44.1,28.0,11.5,10.8,2.7,-11.9,67,35,21,29.60,29.46,17,5,31,0.01
2013-1-31,54.1,36.7,22.5,23.5,14.2,6.5,74,43,18,29.78,29.55,23,4,29,0.00
2013-2-1,50.5,36.8,21.0,21.6,14.8,6.1,87,45,20,29.82,29.69,27,6,31,0.00
2013-2-2,65.1,40.3,25.3,20.4,15.0,7.7,69,40,15,29.93,29.81,17,4,23,0.00
2013-2-3,57.6,41.1,28.8,18.0,8.7,3.0,45,27,18,29.88,29.57,13,2,15,0.00
2013-2-4,59.4,44.0,30.0,16.2,6.9,-3.0,36,21,18,29.65,29.54,18,5,24,0.00
2013-2-5,64.4,47.1,30.7,19.5,11.9,5.6,41,24,16,29.71,29.54,14,2,19,0.00
2013-2-6,55.2,43.7,33.8,33.1,20.5,12.8,95,45,19,29.74,29.51,15,3,18,0.00
2013-2-7,50.4,36.4,24.4,32.3,15.7,0.9,95,49,19,29.81,29.67,12,4,16,0.00
2013-2-8,64.6,38.4,23.0,16.9,6.5,-7.1,48,28,15,29.67,29.40,6,2,8,0.00
2013-2-9,44.4,31.4,21.9,29.5,14.9,0.8,92,54,24,29.41,29.27,18,1,8,0.00
2013-2-10,35.2,23.3,19.0,9.7,7.4,-1.0,65,52,22,29.69,29.54,10,4,13,0.00
2013-2-11,30.7,20.9,14.2,20.4,11.3,5.2,88,68,44,29.70,29.61,10,2,24,0.00
2013-2-12,52.9,33.1,15.1,11.8,1.5,-10.3,65,28,18,29.68,29.64,12,4,14,0.52
2013-2-13,34.5,29.5,24.4,2.6,0.1,-4.5,31,28,26,29.68,29.60,10,6,11,0.00
2013-2-14,34.5,34.5,34.5,2.4,2.4,2.4,25,25,25,29.66,29.66,0,0,0,0.00
2013-2-17,59.2,54.4,49.6,16.1,13.8,11.3,21,20,18,29.33,29.30,17,14,26,0.00
2013-2-18,37.9,26.1,22.5,18.2,13.5,2.5,69,60,22,29.64,29.56,15,4,19,0.00
2013-2-19,32.5,23.0,18.5,10.4,4.0,-0.1,54,43,32,29.93,29.66,4,1,8,0.00
2013-2-20,46.0,24.8,16.9,26.9,14.4,6.5,94,68,22,29.91,29.75,7,2,10,0.00
2013-2-21,37.0,21.4,12.6,19.2,13.5,7.7,91,73,40,29.96,29.81,6,1,8,0.13
2013-2-22,35.8,25.1,15.4,17.8,9.9,-6.6,81,55,24,30.02,29.91,10,3,12,0.04
2013-2-23,49.6,31.5,16.3,24.3,12.9,-8.0,88,48,21,29.93,29.74,18,4,20,0.00
2013-2-24,27.5,25.1,20.7,25.0,22.5,16.3,94,90,82,30.16,29.83,15,4,26,0.00
2013-2-25,54.5,25.3,8.8,21.5,10.7,-0.1,83,57,23,30.15,29.91,11,2,15,0.01
2013-2-26,36.9,26.3,17.8,24.4,14.3,8.1,76,61,43,30.18,29.88,11,2,20,0.05
2013-2-27,50.5,27.5,16.7,11.5,3.6,-8.4,58,37,19,30.26,30.18,12,4,14,0.00
2013-2-28,53.1,33.8,21.2,14.5,2.0,-8.7,40,26,18,30.28,30.20,19,5,27,0.00
2013-3-1,44.4,36.1,25.2,22.3,15.2,2.6,56,43,26,30.34,30.25,11,4,13,0.00
2013-3-2,72.9,50.0,36.0,22.0,19.0,14.1,51,31,12,30.34,30.13,15,5,27,0.00
2013-3-3,65.7,52.5,45.1,25.9,17.6,11.4,41,26,16,30.13,29.80,35,7,42,0.00
2013-3-4,48.6,31.1,18.3,30.9,20.4,4.3,84,66,36,30.25,29.81,21,3,30,0.05
2013-3-5,52.5,26.7,12.4,19.4,10.8,0.5,75,53,23,30.29,30.19,4,0,8,0.02
2013-3-6,66.7,40.7,21.7,29.2,21.7,14.4,81,52,14,30.19,29.96,7,1,10,0.00
2013-3-7,74.1,49.4,34.2,28.8,22.6,14.5,66,40,11,30.07,29.97,10,3,12,0.00
2013-3-8,56.5,38.0,29.3,32.6,28.4,24.7,87,69,36,30.07,29.82,4,1,8,0.00
2013-3-9,34.0,30.2,23.5,32.7,27.8,14.5,99,91,65,30.15,29.78,7,1,14,0.00
2013-3-10,51.1,32.4,17.1,19.5,11.2,1.7,69,43,20,30.18,30.11,13,3,18,0.19
2013-3-11,62.4,41.8,28.8,29.4,17.8,8.1,99,44,19,30.21,30.02,25,6,30,0.00
2013-3-12,41.7,29.4,23.2,29.1,23.9,19.7,99,81,52,30.34,30.20,6,1,49,0.08
2013-3-13,75.0,46.4,26.4,34.8,24.1,14.3,89,47,12,30.33,30.22,14,4,19,0.00
2013-3-14,83.5,60.5,47.3,27.5,18.5,12.8,38,20,10,30.36,30.22,13,3,17,0.00
2013-3-15,83.8,65.5,56.7,27.7,18.6,12.9,26,17,10,30.23,30.01,24,9,34,0.00
2013-3-16,57.7,46.7,37.2,33.2,30.1,23.1,79,54,26,30.11,29.94,14,3,18,0.00
2013-3-17,61.3,45.5,33.8,29.9,19.4,9.1,73,38,18,29.96,29.70,31,9,39,0.00
2013-3-18,53.1,39.6,31.5,11.9,4.8,-3.5,40,23,19,30.03,29.95,26,11,34,0.00
2013-3-19,59.7,43.2,25.0,16.4,7.1,-2.5,59,23,18,30.39,30.02,33,8,42,0.00
2013-3-20,55.9,36.5,20.3,22.9,15.7,10.8,72,47,19,30.38,29.87,7,1,9,0.00
2013-3-21,65.3,47.1,35.1,38.5,18.7,3.3,65,34,18,29.94,29.70,18,4,24,0.00
2013-3-22,51.4,33.1,25.2,28.5,15.5,-0.1,99,54,21,30.01,29.81,18,5,21,0.00
2013-3-23,27.9,19.6,11.5,23.9,16.5,6.2,97,88,77,30.21,29.99,12,4,18,0.00
2013-3-24,39.9,19.6,6.6,14.3,5.8,-5.4,85,57,23,30.24,30.12,5,0,7,0.04
2013-3-25,35.1,22.5,12.2,12.5,8.7,4.1,83,58,30,30.28,30.22,8,2,11,0.00
2013-3-26,64.0,34.0,17.2,27.6,15.0,2.6,68,47,21,30.22,30.01,0,0,0,0.00
2013-3-27,65.7,43.5,30.4,38.4,29.4,20.8,87,59,32,30.18,30.09,8,1,11,0.00
2013-3-28,69.4,48.1,32.5,34.4,29.3,20.7,93,55,18,30.21,30.14,8,1,11,0.00
2013-3-29,68.9,51.4,41.7,31.3,27.1,19.4,61,42,16,30.22,30.14,22,4,27,0.00
2013-3-30,68.7,49.8,38.8,39.5,28.9,17.2,92,51,15,30.30,30.12,19,4,30,0.00
2013-3-31,83.3,55.3,34.9,36.8,24.5,14.6,89,41,10,30.28,30.05,8,3,104,0.00
2013-4-1,58.1,40.7,28.6,34.1,29.3,22.4,92,65,36,30.24,30.12,8,2,14,0.05
2013-4-2,39.6,35.2,32.5,34.4,32.4,29.8,99,90,75,30.21,30.14,0,0,0,0.39
2013-4-3,73.4,47.9,34.2,40.0,32.4,21.2,99,64,16,30.23,30.14,11,1,14,0.04
2013-4-4,74.7,55.4,38.1,35.9,27.0,17.2,78,38,13,30.24,30.10,11,3,16,0.00
2013-4-5,81.7,61.3,50.5,34.2,21.1,14.3,53,23,11,30.11,29.86,23,6,33,0.00
2013-4-6,64.2,53.3,44.6,34.2,21.2,16.4,53,30,17,30.06,29.97,20,4,34,0.00
2013-4-7,70.3,53.7,39.7,35.3,25.9,16.0,81,39,13,30.00,29.83,31,6,39,0.00
2013-4-8,69.8,46.9,26.1,35.0,28.7,22.4,92,54,20,29.94,29.61,19,4,30,0.01
2013-4-9,28.0,18.1,9.7,23.6,12.0,4.0,93,77,56,30.22,29.93,0,0,0,0.00
2013-4-10,37.0,17.2,3.0,16.4,6.9,-3.1,78,65,31,30.20,29.95,7,0,10,0.12
2013-4-11,63.0,37.8,16.2,36.5,24.4,10.4,88,63,26,30.02,29.84,11,2,19,0.00
2013-4-12,63.9,42.5,33.3,34.3,29.8,18.1,87,65,19,30.08,29.98,11,4,18,0.00
2013-4-13,69.6,48.5,30.2,38.1,27.1,15.8,96,54,13,30.06,29.59,18,4,26,0.00
2013-4-14,47.5,40.3,34.9,39.1,15.6,3.8,94,41,18,29.88,29.68,32,12,38,0.11
2013-4-15,39.4,28.2,20.8,31.1,20.7,8.9,97,76,31,30.09,29.85,11,1,17,0.00
2013-4-16,34.7,26.8,20.5,28.5,22.8,17.5,97,85,65,30.09,29.94,0,0,0,0.02
2013-4-17,36.1,25.7,17.6,34.9,23.2,12.6,99,90,74,30.21,30.01,0,0,0,0.01
2013-4-18,48.6,26.5,11.1,16.0,8.7,1.6,84,51,22,30.21,30.14,12,2,15,0.13
2013-4-19,65.3,41.3,25.2,23.1,13.4,2.9,45,32,17,30.18,30.05,18,6,21,0.02
2013-4-20,66.9,48.1,33.3,34.3,28.3,21.6,73,49,21,30.11,30.01,12,3,17,0.00
2013-4-21,65.3,50.3,36.9,35.2,24.1,15.1,84,42,15,30.16,30.08,15,4,18,0.00
2013-4-22,53.8,33.7,21.4,36.9,26.5,19.4,93,77,39,30.34,30.01,9,2,15,0.00
2013-4-23,41.9,27.1,19.0,27.8,14.8,4.0,93,64,25,30.31,30.18,6,0,8,0.28
2013-4-24,68.2,43.3,23.4,22.3,14.5,8.3,60,34,13,30.27,30.18,9,1,11,0.00
2013-4-25,74.3,45.4,32.4,28.6,18.2,7.8,51,36,12,30.23,30.03,8,3,11,0.00
2013-4-26,79.9,58.0,41.9,27.9,19.1,11.7,50,25,11,30.31,30.12,9,3,11,0.00
2013-4-27,84.6,70.4,47.8,27.9,19.9,14.5,38,15,10,30.30,30.14,12,4,14,0.00
2013-4-28,84.4,70.6,54.3,27.9,20.2,13.0,26,15,10,30.16,29.99,20,5,24,0.00
2013-4-29,82.4,67.0,49.3,37.9,25.4,14.3,57,25,10,30.08,29.80,21,7,28,0.00
2013-4-30,69.8,52.3,32.4,41.1,31.7,14.9,99,52,12,30.13,29.81,14,4,19,0.13
2013-5-1,33.3,29.1,22.8,32.8,27.1,20.8,99,92,79,30.60,30.13,4,0,8,0.17
2013-5-2,54.1,33.9,17.6,24.8,16.5,7.4,94,54,19,30.65,30.44,6,1,7,0.19
2013-5-3,69.1,47.9,29.3,31.0,22.6,15.1,71,41,16,30.45,30.18,4,1,9,0.00
2013-5-4,67.8,49.1,36.5,34.7,27.4,21.2,67,45,21,30.29,30.18,10,3,13,0.00
2013-5-5,58.6,45.8,34.2,38.2,26.3,17.9,72,49,23,30.30,30.19,6,2,8,0.00
2013-5-6,72.9,55.1,39.0,37.3,32.0,26.7,78,45,18,30.19,30.05,7,2,9,0.00
2013-5-7,77.7,53.8,47.1,46.0,37.3,23.2,90,57,16,30.14,30.01,8,2,13,0.02
2013-5-8,59.9,49.3,44.2,46.3,41.1,35.5,99,75,42,30.20,30.08,14,4,18,0.34
2013-5-9,62.8,50.2,44.6,45.1,41.0,33.3,97,73,33,30.30,30.18,12,3,15,0.25
2013-5-10,73.8,55.9,40.5,42.0,36.5,26.9,83,52,20,30.38,30.27,9,2,11,0.00
2013-5-11,74.1,56.9,44.2,42.7,37.3,26.5,74,50,19,30.46,30.30,15,3,19,0.00
2013-5-12,93.2,69.3,51.1,41.8,31.9,25.1,61,29,10,30.33,30.22,8,2,14,0.00
2013-5-13,84.0,68.2,63.0,41.3,32.0,24.9,36,26,17,30.28,30.17,9,3,12,0.00
2013-5-14,87.4,72.6,64.9,39.7,32.4,25.5,36,23,13,30.17,30.07,19,3,24,0.00
2013-5-15,88.5,68.9,56.5,52.1,40.0,30.3,79,39,16,30.13,30.03,36,3,46,0.04
2013-5-16,90.5,67.3,53.8,49.9,40.7,29.7,84,44,13,30.10,29.96,11,2,14,0.00
2013-5-17,96.6,72.4,53.8,48.4,34.4,14.3,76,32,10,30.05,29.91,17,4,21,0.00
2013-5-18,81.0,66.7,54.7,38.6,28.0,14.9,49,25,12,30.05,29.93,30,6,37,0.00
2013-5-19,75.0,59.4,50.9,38.1,28.2,14.9,57,33,12,30.01,29.91,20,4,26,0.01
2013-5-20,67.8,54.1,46.0,47.1,41.2,29.8,97,64,34,30.14,29.98,11,4,18,0.14
2013-5-21,78.3,55.6,42.8,43.1,33.3,22.4,89,51,15,30.16,30.01,9,2,13,0.00
2013-5-22,86.5,59.1,43.7,51.0,37.6,28.5,87,51,15,30.19,30.03,8,2,11,0.02
2013-5-23,81.3,60.0,46.6,51.1,47.0,43.5,99,66,27,30.22,30.09,8,2,11,0.00
2013-5-24,90.9,65.1,45.7,53.2,42.6,30.9,99,54,13,30.14,30.04,7,2,10,0.00
2013-5-25,97.9,73.5,52.9,53.2,38.4,24.5,75,35,10,30.14,30.01,8,2,11,0.00
2013-5-26,88.5,70.4,58.1,37.7,26.7,18.5,43,21,10,30.09,30.02,13,4,15,0.01
2013-5-27,86.7,71.0,55.8,40.7,24.1,15.1,51,19,10,30.02,29.91,15,3,18,0.00
2013-5-28,83.7,64.7,50.5,45.0,35.5,17.2,64,37,12,30.00,29.75,11,3,18,0.00
2013-5-29,71.2,56.9,45.7,51.5,42.3,25.9,99,63,20,29.89,29.79,25,3,30,0.35
2013-5-30,68.7,57.8,49.3,34.3,25.8,17.2,55,31,14,30.02,29.84,40,8,46,0.00
2013-5-31,72.9,60.8,50.4,23.7,16.8,13.4,31,19,11,30.14,29.99,23,7,30,0.00
2013-6-1,81.0,60.0,44.6,38.9,34.4,13.4,70,43,18,30.30,30.14,8,2,11,0.00
2013-6-2,88.2,71.1,46.0,36.4,31.7,21.6,63,25,11,30.31,29.98,8,3,12,0.00
2013-6-3,89.8,81.0,63.5,34.3,26.3,18.5,29,14,10,30.09,29.92,24,8,29,0.00
2013-6-4,76.3,61.6,49.1,53.2,43.8,17.3,97,55,15,30.32,30.08,12,2,21,0.17
2013-6-5,60.1,50.6,45.0,49.1,46.1,43.2,99,85,64,30.32,30.24,6,2,8,0.01
2013-6-6,89.6,64.5,44.8,49.1,40.7,31.3,87,50,14,30.25,30.16,8,2,9,0.00
2013-6-7,86.0,67.2,52.5,47.8,40.3,35.1,64,40,19,30.24,29.98,16,3,20,0.00
2013-6-8,76.6,67.7,60.3,49.9,38.6,30.5,59,35,23,30.19,29.93,15,3,23,0.00
2013-6-9,99.3,73.3,54.0,47.4,36.2,25.2,62,32,10,30.19,30.07,10,3,15,0.00
2013-6-10,98.1,83.1,68.5,48.2,32.1,25.1,36,17,10,30.12,30.02,12,4,17,0.00
2013-6-11,101.8,82.0,66.4,41.6,29.1,19.0,32,16,10,30.14,29.98,21,5,27,0.00
2013-6-12,97.7,76.7,62.1,54.1,27.9,16.7,60,18,10,30.27,30.14,12,3,99,0.01
2013-6-13,90.7,66.9,54.9,57.1,53.4,46.6,93,65,28,30.27,30.07,10,2,14,0.00
2013-6-14,91.9,76.7,61.9,50.5,39.5,25.8,60,30,10,30.15,30.04,19,6,27,0.00
2013-6-15,84.0,68.5,56.3,51.4,46.7,42.7,71,48,26,30.23,30.12,8,2,13,0.00
2013-6-16,87.1,69.5,57.6,55.2,42.9,22.3,81,44,12,30.27,30.19,20,3,27,0.00
2013-6-17,90.3,74.2,58.1,52.1,46.0,35.1,71,40,18,30.31,30.18,8,2,12,0.00
2013-6-18,94.6,72.6,54.1,53.9,49.2,38.8,91,47,19,30.26,30.03,15,3,21,0.00
2013-6-19,101.7,72.5,52.7,52.3,42.8,20.0,81,45,10,30.15,29.87,9,2,14,0.00
2013-6-20,97.9,78.5,57.9,49.7,34.5,23.7,69,25,10,30.10,29.98,11,3,14,0.00
2013-6-21,91.0,72.6,58.5,57.5,41.3,20.1,66,39,10,30.09,29.97,9,2,20,0.00
2013-6-22,95.7,70.8,57.0,50.5,44.9,26.5,68,44,10,30.13,29.95,13,1,17,0.00
2013-6-23,97.3,69.2,55.9,52.0,44.9,24.6,78,47,10,30.19,30.01,17,3,24,0.00
2013-6-24,98.2,76.2,59.0,51.6,38.0,20.5,62,31,10,30.09,29.94,17,4,21,0.00
2013-6-25,97.9,79.4,65.1,39.5,27.7,16.3,32,16,10,30.18,29.99,21,7,27,0.00
2013-6-26,104.2,81.4,63.9,98.1,34.8,28.1,97,21,10,30.24,30.17,11,4,18,0.00
2013-6-27,107.8,86.8,68.2,43.7,35.6,28.3,32,18,10,30.38,30.22,8,2,12,0.00
2013-6-28,100.0,77.6,60.6,61.4,50.9,38.8,92,42,20,30.40,30.27,10,2,16,0.25
2013-6-29,88.7,72.7,60.6,58.6,53.7,46.5,82,54,24,30.36,30.25,10,2,11,0.00
2013-6-30,83.3,69.1,61.0,59.1,54.6,50.5,81,62,36,30.33,30.28,8,2,11,0.00
2013-7-1,81.5,64.6,56.8,54.4,50.9,46.2,83,63,30,30.40,30.32,7,2,10,0.00
2013-7-2,93.0,75.5,59.7,53.8,45.0,38.6,75,37,19,30.36,30.26,5,1,9,0.00
2013-7-3,99.7,73.1,56.8,50.8,45.5,33.4,68,43,10,30.27,30.09,8,3,11,0.00
2013-7-4,99.1,79.6,65.7,48.2,42.5,35.1,42,29,12,30.16,30.09,17,3,20,0.00
2013-7-5,97.7,77.2,66.0,56.8,50.5,44.0,65,41,20,30.10,30.03,12,3,15,0.00
2013-7-6,93.9,78.2,64.6,53.4,47.3,35.5,63,36,14,30.16,30.03,21,4,35,0.00
2013-7-7,88.3,76.8,65.7,58.7,50.5,42.8,70,42,21,30.22,30.14,14,2,18,0.00
2013-7-8,99.0,80.8,62.2,58.8,46.7,29.4,82,38,10,30.26,30.18,22,3,29,0.00
2013-7-9,101.7,83.0,70.5,46.8,38.0,28.7,39,22,10,30.34,30.25,11,2,15,0.00
2013-7-10,93.0,77.1,63.1,58.1,49.1,39.0,56,39,18,30.37,30.18,10,3,14,0.00
2013-7-11,104.7,79.7,62.4,57.3,50.3,30.7,73,42,10,30.25,30.04,21,4,30,0.00
2013-7-12,94.3,76.1,65.3,62.1,52.7,44.5,85,48,20,30.23,30.10,21,2,27,0.11
2013-7-13,92.7,71.2,62.6,64.7,58.8,53.2,91,68,29,30.32,30.20,15,4,20,0.05
2013-7-14,88.9,71.4,59.4,63.3,57.9,52.4,93,65,31,30.37,30.23,11,3,14,0.00
2013-7-15,81.9,69.2,63.1,64.8,59.6,48.2,99,73,49,30.33,30.24,10,2,14,0.02
2013-7-16,93.6,71.0,55.2,53.4,48.7,42.2,88,51,19,30.34,30.25,14,2,23,0.00
2013-7-17,93.2,67.9,57.0,54.3,50.5,45.7,88,58,23,30.34,30.24,0,0,0,0.00
2013-7-18,90.5,71.2,63.1,57.3,52.3,45.1,69,52,25,30.31,30.23,20,2,24,0.02
2013-7-19,89.2,72.5,63.1,58.8,55.8,50.1,84,59,27,30.32,30.25,6,2,10,0.01
2013-7-20,98.6,81.8,62.4,56.8,51.3,43.0,69,38,18,30.22,30.11,10,3,17,0.00
2013-7-21,95.0,72.6,56.5,59.5,54.1,34.0,89,56,24,30.16,30.07,8,3,13,0.00
2013-7-22,102.7,82.9,66.7,58.3,47.1,26.7,64,32,11,30.17,30.06,8,2,12,0.00
2013-7-23,93.6,75.6,69.6,58.3,35.8,14.5,63,27,11,30.30,30.12,8,2,10,0.00
2013-7-24,88.5,71.7,60.4,60.3,51.8,34.7,79,53,19,30.33,30.19,15,4,24,0.00
2013-7-25,86.0,66.1,56.5,61.0,54.6,49.9,96,69,33,30.37,30.21,11,3,14,0.37
2013-7-26,86.5,70.7,58.5,56.1,49.7,40.0,78,51,22,30.40,30.27,8,3,12,0.00
2013-7-27,87.1,67.3,55.0,61.1,52.8,45.5,99,63,32,30.30,30.19,8,2,13,0.07
2013-7-28,76.1,62.9,57.6,61.2,58.3,55.3,99,86,52,30.24,30.09,10,2,15,0.01
2013-7-29,75.7,63.5,56.8,63.2,56.5,47.4,99,80,43,30.31,30.10,11,2,17,0.01
2013-7-30,103.1,74.1,59.0,58.7,49.9,38.1,79,49,11,30.36,30.28,8,2,11,0.15
2013-7-31,102.9,74.8,58.5,55.3,49.8,30.7,80,48,10,30.43,30.28,10,2,14,0.00
2013-8-1,95.7,73.8,59.5,58.5,51.7,32.9,81,51,12,30.35,30.15,14,3,20,0.01
2013-8-2,97.3,72.6,60.1,54.8,48.1,31.6,81,46,10,30.21,30.12,14,3,21,0.00
2013-8-3,94.5,73.7,59.4,60.9,56.5,41.3,99,60,17,30.39,30.21,10,2,13,0.30
2013-8-4,95.9,81.7,63.3,60.1,51.1,39.4,70,37,21,30.28,30.24,15,4,17,0.00
2013-8-5,77.2,68.4,64.2,57.8,53.7,45.8,76,60,33,30.24,30.18,8,3,8,0.01
2013-8-6,96.4,68.6,62.4,52.3,47.3,41.2,61,48,19,30.22,30.14,17,4,20,0.01
2013-8-7,83.3,67.8,59.5,57.4,52.6,46.1,92,60,31,30.27,30.16,14,4,18,0.00
2013-8-8,81.1,67.4,57.7,59.3,54.7,46.4,99,67,38,30.30,30.17,8,2,10,0.00
2013-8-9,80.1,69.1,59.2,51.8,47.8,37.6,66,48,23,30.32,30.28,11,5,17,0.00
2013-8-10,96.4,76.2,55.2,50.3,43.6,32.5,63,36,11,30.34,30.23,13,4,19,0.08
2013-8-11,91.4,72.4,59.5,50.6,45.9,38.5,71,42,19,30.33,30.27,8,3,11,0.00
2013-8-12,90.5,64.5,55.8,57.0,50.4,41.8,97,64,19,30.40,30.26,14,4,18,0.11
2013-8-13,82.8,66.9,53.8,54.4,49.0,42.6,91,56,28,30.36,30.26,14,4,19,0.00
2013-8-14,92.5,74.7,52.3,55.9,47.2,38.7,98,44,18,30.34,30.24,6,2,10,0.01
2013-8-15,95.2,69.5,58.8,51.6,41.1,29.1,56,39,11,30.32,30.23,11,2,17,0.00
2013-8-16,100.8,83.1,63.1,47.2,37.6,26.2,48,22,10,30.31,30.24,8,3,10,0.00
2013-8-17,101.8,71.4,60.6,57.4,45.4,25.2,83,45,10,30.30,30.17,6,2,8,0.00
2013-8-18,94.3,81.0,70.3,45.7,40.1,30.9,40,25,11,30.28,30.21,15,4,23,0.00
2013-8-19,106.5,81.3,61.5,51.2,40.1,29.9,57,28,10,30.27,30.17,10,3,13,0.00
2013-8-20,99.5,88.4,78.4,41.2,35.6,29.9,24,17,10,30.20,30.13,9,2,14,0.00
2013-8-21,91.2,72.1,66.4,60.1,52.2,37.9,74,53,19,30.29,30.19,12,4,17,0.15
2013-8-22,88.5,71.4,61.3,60.6,56.4,53.6,79,61,39,30.36,30.25,11,3,16,0.01
2013-8-23,92.7,67.8,60.6,57.6,53.9,49.6,87,64,25,30.32,30.14,15,4,19,0.00
2013-8-24,96.3,77.1,66.0,56.2,51.4,43.4,69,43,20,29.98,29.91,25,5,29,0.02
2013-8-25,97.0,75.0,63.3,54.1,50.0,44.2,62,44,18,30.03,29.96,16,3,20,0.00
2013-8-26,101.1,76.9,63.7,63.4,53.2,38.5,76,47,12,30.03,29.97,21,3,26,0.01
2013-8-27,91.2,78.3,66.2,58.8,52.2,47.2,76,43,23,30.03,29.93,9,4,14,0.00
2013-8-28,96.6,79.5,67.6,53.1,50.0,44.0,56,38,20,30.01,29.94,10,3,13,0.00
2013-8-29,104.2,82.3,68.7,48.8,42.9,31.5,43,27,10,30.06,29.98,14,3,18,0.00
2013-8-30,91.6,78.7,68.0,53.1,46.6,41.5,47,33,20,30.06,29.97,18,3,21,0.00
2013-8-31,95.7,76.6,65.3,55.4,47.6,37.2,65,39,15,30.01,29.93,17,4,20,0.00
2013-9-1,78.8,69.3,60.3,60.8,56.3,47.3,99,65,45,30.08,29.97,7,2,11,0.07
2013-9-2,97.9,75.2,59.2,57.8,51.2,36.6,88,49,12,30.01,29.91,9,2,13,0.00
2013-9-3,101.5,80.5,66.6,54.1,48.2,38.7,61,35,12,30.01,29.93,12,4,18,0.00
2013-9-4,100.0,79.7,69.4,52.3,49.0,43.2,53,36,16,30.07,30.00,7,2,9,0.00
2013-9-5,103.8,78.9,64.0,55.4,49.7,37.7,70,40,11,30.08,29.99,7,2,10,0.00
2013-9-6,104.2,81.6,68.5,51.5,45.4,33.4,42,30,10,30.04,29.93,17,3,23,0.00
2013-9-7,100.6,80.5,65.5,50.0,45.5,33.7,54,32,10,30.01,29.90,9,3,14,0.00
2013-9-8,99.3,77.2,65.5,50.4,46.1,41.5,50,35,14,29.93,29.79,10,3,13,0.00
2013-9-9,84.4,67.4,56.7,59.0,52.4,46.9,99,63,30,29.95,29.80,12,4,18,1.12
2013-9-10,66.4,59.2,56.8,61.6,57.9,56.6,99,96,78,30.06,29.92,5,1,8,0.41
2013-9-11,67.1,59.9,58.3,66.8,59.6,58.0,99,99,95,30.07,30.02,10,1,11,3.65
2013-9-12,62.1,59.1,56.7,61.5,58.8,56.4,99,99,98,30.13,30.05,9,2,11,3.69
2013-9-13,81.7,63.3,56.7,62.0,57.9,54.9,99,85,45,30.05,29.81,7,1,8,0.33
2013-9-14,86.4,66.0,55.9,60.7,55.8,43.0,99,73,26,29.92,29.79,13,2,15,0.01
2013-9-15,59.0,56.4,52.9,58.1,55.5,52.3,99,97,94,30.11,29.91,6,1,11,1.00
2013-9-16,83.8,62.4,52.3,61.2,54.5,50.9,99,79,39,30.09,29.92,7,1,8,0.32
2013-9-17,90.0,72.0,58.1,56.1,44.6,31.0,90,42,13,29.94,29.75,8,3,12,0.00
2013-9-18,94.6,71.6,61.9,49.7,42.3,33.9,54,36,14,29.81,29.72,25,6,36,0.00
2013-9-19,75.4,60.9,52.5,47.3,42.4,37.0,80,52,30,30.03,29.79,9,2,12,0.00
2013-9-20,84.9,61.1,45.5,45.7,41.8,32.6,89,55,19,30.03,29.91,6,2,9,0.00
2013-9-21,93.0,68.0,50.0,50.1,42.5,31.8,71,44,12,29.91,29.73,7,2,11,0.00
2013-9-22,83.7,69.2,58.3,47.4,39.8,32.3,67,35,19,29.71,29.55,10,3,17,0.00
2013-9-23,69.1,55.6,48.9,50.3,35.6,24.3,99,54,20,29.91,29.49,11,2,18,0.51
2013-9-24,91.2,63.0,46.4,40.9,30.5,23.8,66,32,10,29.98,29.76,0,0,0,0.00
2013-9-25,87.3,68.8,62.1,49.8,40.9,27.7,63,38,23,29.57,29.44,4,1,7,0.00
2013-9-26,79.0,59.7,46.2,46.8,42.1,25.6,82,55,24,29.70,29.50,6,3,11,0.00
2013-9-27,56.1,47.2,38.5,50.6,45.0,38.0,99,93,66,29.85,29.64,8,2,10,0.35
2013-9-28,73.9,52.2,37.9,39.1,28.3,19.5,99,45,15,29.97,29.85,18,4,24,0.00
2013-9-29,84.6,70.4,63.1,37.2,21.6,15.3,28,16,12,29.82,29.78,24,7,28,0.00
2013-9-30,91.9,71.6,58.5,48.8,31.0,17.0,41,23,12,29.80,29.69,19,4,21,0.00
2013-10-1,87.4,67.2,55.6,44.7,37.4,20.7,62,36,18,29.95,29.82,6,2,8,0.00
2013-10-2,87.3,64.4,51.8,43.5,37.6,26.3,65,42,13,29.85,29.77,10,2,12,0.00
2013-10-3,69.8,53.7,42.3,47.9,39.8,35.7,99,62,32,29.82,29.65,4,1,7,0.05
2013-10-4,45.7,37.8,31.1,44.9,33.6,25.8,99,85,61,30.00,29.67,8,3,14,0.76
2013-10-5,71.6,52.6,30.6,26.0,15.7,10.1,81,26,13,30.02,29.94,17,2,29,0.00
2013-10-6,75.6,57.0,38.7,35.1,21.9,10.5,52,27,14,30.07,29.99,0,0,0,0.00
2013-10-7,86.5,62.4,43.2,40.1,29.2,18.5,63,32,10,30.03,29.80,0,0,0,0.00
2013-10-8,88.3,67.6,55.6,39.2,26.3,14.9,42,22,12,29.80,29.65,0,0,0,0.00
2013-10-9,75.4,58.6,50.0,44.0,36.6,25.5,78,46,26,29.84,29.70,0,0,0,0.00
2013-10-10,68.2,51.1,44.1,48.4,43.3,37.7,95,76,43,29.83,29.47,23,1,27,0.08
2013-10-11,56.8,51.9,43.2,39.2,27.9,21.5,83,42,28,29.89,29.39,33,8,49,0.00
2013-10-12,65.3,45.3,39.0,42.9,39.6,37.4,99,83,36,30.01,29.88,0,0,0,0.00
2013-10-13,72.1,51.8,35.8,43.1,39.0,33.4,94,66,30,29.97,29.75,0,0,0,0.00
2013-10-14,58.6,49.1,39.0,41.9,36.9,27.7,83,64,40,29.97,29.70,18,1,24,0.08
2013-10-15,41.0,36.2,33.6,29.9,25.5,21.0,77,65,55,30.09,29.98,6,3,9,0.00
2013-10-16,60.6,42.8,28.4,32.1,25.3,19.5,86,53,23,30.01,29.83,5,1,8,0.00
2013-10-17,55.4,41.6,33.3,31.7,27.3,15.7,79,58,31,29.93,29.86,5,0,8,0.00
2013-10-18,52.2,36.9,29.7,36.9,29.7,24.8,99,79,35,30.00,29.89,8,2,16,0.25
2013-10-19,70.5,58.5,51.1,19.9,17.1,12.5,25,20,13,29.88,29.77,10,0,12,0.00
2013-10-20,52.9,43.9,32.7,37.6,27.6,14.5,99,58,22,29.95,29.75,8,0,11,0.13
2013-10-21,73.4,48.2,30.6,33.4,24.3,16.0,99,48,13,30.00,29.91,0,0,0,0.06
2013-10-22,68.4,54.4,41.7,32.8,26.1,19.4,56,35,20,30.04,29.95,0,0,0,0.00
2013-10-23,75.0,56.2,45.5,35.9,27.9,16.9,63,36,17,30.04,29.94,0,0,0,0.00
2013-10-24,65.5,45.7,32.5,39.6,35.1,30.6,97,69,32,30.08,30.01,0,0,0,0.00
2013-10-25,79.7,54.4,37.6,40.3,31.3,14.0,84,48,14,30.07,29.93,97,0,0,0.00
2013-10-26,65.7,52.2,39.4,36.7,30.5,24.6,72,45,23,30.15,29.96,0,0,0,0.00
2013-10-27,76.6,58.0,41.7,32.2,21.1,14.3,64,28,11,29.96,29.72,0,0,0,0.00
2013-10-28,52.3,37.3,30.6,34.0,30.1,21.0,99,80,29,29.89,29.74,0,0,0,0.04
2013-10-29,36.3,33.3,30.7,35.4,31.7,30.3,99,94,83,29.85,29.70,0,0,0,0.01
2013-10-30,44.6,35.2,29.8,38.3,31.5,17.7,99,88,45,29.76,29.67,0,0,0,0.12
2013-10-31,55.4,44.5,34.7,21.7,15.8,7.9,56,33,19,29.70,29.66,30,5,39,0.00
2013-11-1,61.3,46.6,35.1,32.9,22.4,12.5,60,40,20,30.01,29.94,8,3,11,0.00
2013-11-2,73.9,48.4,30.4,30.3,20.1,12.2,63,36,16,30.02,29.63,7,0,9,0.00
2013-11-3,72.9,53.6,38.7,27.9,20.3,11.1,65,31,11,29.70,29.46,14,1,23,0.00
2013-11-4,42.8,33.7,28.9,31.0,18.3,6.0,96,57,23,29.84,29.69,14,3,20,0.00
2013-11-5,51.1,33.2,27.9,22.6,10.0,-4.0,75,43,18,29.93,29.74,0,0,0,0.00
2013-11-6,62.1,43.8,27.5,17.6,9.0,-3.9,38,24,17,30.11,29.91,0,0,0,0.00
2013-11-7,48.7,39.1,28.4,26.1,18.8,10.6,62,44,26,30.15,29.82,0,0,0,0.00
2013-11-8,61.7,54.8,39.9,23.8,17.1,12.0,51,23,17,29.86,29.67,9,0,14,0.00
2013-11-9,74.7,49.7,34.9,31.9,25.0,12.3,70,42,17,30.06,29.85,0,0,0,0.00
2013-11-10,79.5,52.1,36.1,29.8,22.0,12.4,68,36,11,30.05,29.97,0,0,0,0.00
2013-11-11,71.1,46.2,30.0,31.7,21.9,12.2,90,47,12,30.37,30.00,7,1,11,0.00
2013-11-12,67.1,44.7,27.7,36.1,29.0,21.6,96,58,20,30.37,30.15,7,2,9,0.00
2013-11-13,81.1,57.9,36.5,30.1,16.7,6.1,72,22,10,30.15,29.86,11,1,14,0.00
2013-11-14,59.7,49.8,39.0,33.7,25.9,12.5,69,41,19,29.93,29.63,10,1,14,0.00
2013-11-15,67.3,50.3,36.3,30.8,19.5,5.5,73,34,14,29.63,29.39,0,0,0,0.00
2013-11-16,56.8,47.6,39.2,33.3,15.2,5.2,79,29,18,29.45,29.26,29,1,42,0.00
2013-11-17,64.8,44.2,34.0,24.3,13.9,6.8,63,31,15,29.88,29.44,21,2,28,0.00
2013-11-18,68.5,47.2,27.9,20.5,13.6,6.8,52,28,13,29.95,29.85,0,0,0,0.00
2013-11-19,73.9,52.1,39.9,28.3,16.3,5.2,42,25,12,29.84,29.60,0,0,0,0.00
2013-11-20,65.5,50.1,28.6,29.7,22.5,14.6,77,36,17,29.85,29.63,0,0,0,0.00
2013-11-21,28.0,16.8,11.8,21.8,9.2,3.4,90,72,56,30.26,29.85,5,1,7,0.00
2013-11-22,34.5,25.2,15.4,19.9,12.2,-2.4,79,59,29,30.31,30.18,6,1,9,0.00
2013-11-23,42.6,28.3,21.7,27.7,16.3,-0.4,90,63,31,30.31,30.06,0,0,0,0.08
2013-11-24,40.1,29.0,19.8,28.0,20.7,12.4,86,72,36,30.06,29.77,0,0,0,0.00
2013-11-25,42.1,35.7,32.0,26.4,19.8,7.8,71,53,26,30.07,29.83,0,0,0,0.00
2013-11-26,62.2,40.2,28.8,24.7,17.3,10.5,67,43,19,30.14,30.01,3,0,4,0.00
2013-11-27,78.1,48.7,30.6,31.1,17.4,8.3,55,31,11,30.02,29.85,11,1,13,0.00
2013-11-28,59.2,40.3,32.9,27.3,22.0,17.0,72,49,24,30.01,29.93,0,0,0,0.00
2013-11-29,68.9,49.4,33.1,25.2,16.5,7.1,65,30,13,29.97,29.89,13,0,18,0.00
2013-11-30,69.4,49.9,35.6,20.0,11.8,5.1,46,22,13,29.98,29.91,0,0,0,0.00
2013-12-1,61.9,47.3,32.2,22.5,15.4,6.0,52,29,19,29.96,29.69,21,1,27,0.00
2013-12-2,68.2,52.9,45.5,22.5,17.8,11.3,39,25,14,29.72,29.46,21,0,24,0.00
2013-12-3,54.0,36.6,10.0,28.9,14.6,3.1,79,46,20,29.60,29.36,0,0,0,0.00
2013-12-4,20.7,6.6,-1.1,15.8,-1.9,-11.9,81,68,53,29.81,29.57,0,0,0,0.00
2013-12-5,18.7,3.0,-6.3,-3.7,-12.2,-19.0,70,51,21,29.84,29.73,0,0,0,0.00
2013-12-6,19.4,1.1,-7.8,-2.7,-11.9,-18.2,66,55,24,29.93,29.84,0,0,0,0.00
2013-12-7,20.3,2.0,-6.7,2.7,-9.8,-15.6,69,58,33,29.91,29.56,0,0,0,0.00
2013-12-8,30.0,9.1,0.0,10.8,-1.8,-9.3,76,62,30,29.79,29.51,0,0,0,0.00
2013-12-9,34.3,14.1,-4.0,2.1,-10.2,-17.6,72,37,18,29.89,29.75,0,0,0,0.00
2013-12-10,52.3,34.7,21.9,11.7,2.3,-9.3,52,26,19,30.01,29.69,0,0,0,0.04
2013-12-11,43.0,24.4,13.6,17.6,10.6,5.6,77,57,29,30.07,30.00,8,0,11,0.00
2013-12-12,65.8,40.6,22.5,18.7,9.5,-5.0,60,29,15,30.04,29.76,0,0,0,0.00
2013-12-13,58.3,38.4,29.1,18.8,9.7,-1.0,58,32,18,29.94,29.67,11,0,14,0.00
2013-12-14,45.1,35.1,23.7,18.1,9.6,3.5,62,37,19,30.04,29.93,11,0,14,0.00
2013-12-15,56.3,47.5,37.6,17.5,11.6,8.1,34,24,18,29.96,29.88,0,0,0,0.00
2013-12-16,65.7,53.5,42.6,19.5,12.7,3.8,23,19,16,30.03,29.88,0,0,0,0.00
2013-12-17,71.1,53.3,34.7,19.2,12.9,4.2,32,20,12,30.09,29.88,0,0,0,0.00
2013-12-18,67.3,58.4,51.4,18.5,14.9,11.1,21,18,14,29.88,29.59,0,0,0,0.00
2013-12-19,54.7,36.3,15.4,25.5,16.8,10.3,86,49,20,29.70,29.44,0,0,0,0.00
2013-12-20,22.6,18.2,14.4,19.9,14.9,10.4,92,87,84,29.69,29.49,0,0,0,0.00
2013-12-21,33.6,22.9,13.8,24.6,17.1,10.5,92,79,52,29.70,29.41,0,0,0,0.00
2013-12-22,55.4,28.8,16.9,21.5,12.3,0.2,82,55,19,29.99,29.70,0,0,0,0.01
2013-12-23,58.5,30.2,15.3,26.4,17.1,11.8,91,63,21,30.02,29.89,0,0,0,0.01
2013-12-24,51.8,41.9,28.4,30.7,12.9,-2.1,53,31,19,30.04,29.75,23,0,34,0.01
2013-12-25,54.0,35.4,21.4,11.9,4.4,-6.6,59,29,18,30.13,29.96,0,0,0,0.00
2013-12-26,60.4,45.9,35.4,18.0,7.7,-2.9,32,21,18,30.07,29.95,0,0,0,0.00
2013-12-27,68.7,48.3,34.7,20.4,15.0,5.0,42,27,14,30.05,29.85,0,0,0,0.00
2013-12-28,67.8,41.6,20.3,23.5,18.1,12.7,84,43,15,30.00,29.71,0,0,0,0.00
2013-12-29,40.3,25.8,12.4,16.3,8.9,-2.2,85,53,19,30.00,29.71,0,0,0,0.05
2013-12-30,54.7,40.5,33.6,12.0,7.0,0.6,36,25,18,29.98,29.76,12,0,24,0.00
2013-12-31,62.6,47.6,35.6,19.2,13.1,3.8,41,25,17,29.89,29.75,0,0,0,0.00
2014-1-1,50.0,34.1,22.3,31.1,22.8,14.5,92,66,30,30.06,29.72,0,0,0,0.00
2014-1-2,50.5,30.1,18.7,24.0,18.0,13.0,86,63,29,30.02,29.81,0,0,0,0.01